Time;durP1;ratioP1;P1;durP2;ratioP2;P2;SDS_P1;SDS_P2;PMS_P1;PMS_P2;Temp;Humidity;BMP_temperature;BMP_pressure;BME280_temperature;BME280_humidity;BME280_pressure;Samples;Min_cycle;Max_cycle;Signal;HPM_P1;HPM_P2
2022/06/29 00:00:38;;;;;;;5.53;1.60;;;15.90;99.90;;;;;;5038750;28;20590;-78
2022/06/29 00:03:05;;;;;;;5.00;1.70;;;15.90;99.90;;;;;;5051160;28;20504;-77
2022/06/29 00:05:30;;;;;;;6.63;2.20;;;15.90;99.90;;;;;;5051271;28;20061;-77
2022/06/29 00:07:57;;;;;;;5.32;2.50;;;15.90;99.90;;;;;;5032697;28;20196;-77
2022/06/29 00:10:23;;;;;;;7.10;2.13;;;16.00;99.90;;;;;;5016531;28;20110;-75
2022/06/29 00:12:49;;;;;;;6.18;2.72;;;15.90;99.90;;;;;;5031796;28;20404;-76
2022/06/29 00:15:16;;;;;;;5.47;1.77;;;15.80;99.90;;;;;;5034781;28;20053;-75
2022/06/29 00:17:42;;;;;;;6.55;2.97;;;15.80;99.90;;;;;;5052619;28;20463;-77
2022/06/29 00:20:10;;;;;;;6.93;2.83;;;15.80;99.90;;;;;;5040964;28;20089;-75
2022/06/29 00:22:36;;;;;;;4.85;1.60;;;15.70;99.90;;;;;;5039281;28;20061;-75
2022/06/29 00:25:03;;;;;;;5.00;1.80;;;15.70;99.90;;;;;;5052517;28;20056;-75
2022/06/29 00:27:29;;;;;;;5.30;1.75;;;15.80;99.90;;;;;;5051610;28;20052;-76
2022/06/29 00:29:55;;;;;;;4.82;1.60;;;15.90;99.90;;;;;;5034820;28;20045;-76
2022/06/29 00:32:20;;;;;;;7.60;2.50;;;15.90;99.90;;;;;;5049800;28;20249;-76
2022/06/29 00:34:46;;;;;;;6.47;2.67;;;15.90;99.90;;;;;;5036138;28;20490;-76
2022/06/29 00:37:12;;;;;;;6.32;2.92;;;15.80;99.90;;;;;;5036880;28;20077;-76
2022/06/29 00:39:37;;;;;;;7.72;3.35;;;15.80;99.90;;;;;;5046783;28;20057;-76
2022/06/29 00:42:03;;;;;;;5.85;3.38;;;15.70;99.90;;;;;;5048565;28;20124;-79
2022/06/29 00:44:29;;;;;;;5.82;2.70;;;15.60;99.90;;;;;;5032382;28;20478;-76
2022/06/29 00:46:58;;;;;;;5.05;2.40;;;15.60;99.90;;;;;;5043514;28;20083;-75
2022/06/29 00:49:26;;;;;;;5.90;2.72;;;15.60;99.90;;;;;;5034767;28;20053;-75
2022/06/29 00:52:02;;;;;;;6.63;3.08;;;15.30;99.90;;;;;;5042984;28;20128;-75
2022/06/29 00:54:32;;;;;;;5.95;2.17;;;15.30;99.90;;;;;;5034744;28;20056;-75
2022/06/29 00:57:01;;;;;;;8.30;2.70;;;15.30;99.90;;;;;;5035227;28;20102;-75
2022/06/29 00:59:29;;;;;;;7.20;2.38;;;15.20;99.90;;;;;;5038650;28;20053;-75
2022/06/29 01:01:55;;;;;;;7.07;2.40;;;15.20;99.90;;;;;;5048350;28;20099;-75
2022/06/29 01:04:20;;;;;;;4.30;1.80;;;15.10;99.90;;;;;;5021381;28;20037;-75
2022/06/29 01:06:46;;;;;;;6.90;3.80;;;15.10;99.90;;;;;;5034946;28;20380;-76
2022/06/29 01:09:12;;;;;;;6.43;2.65;;;15.10;99.90;;;;;;5020817;28;20129;-76
2022/06/29 01:11:38;;;;;;;7.68;3.17;;;15.00;99.90;;;;;;5047952;28;20806;-76
2022/06/29 01:14:03;;;;;;;5.05;1.90;;;14.90;99.90;;;;;;5050547;28;20064;-75
2022/06/29 01:16:30;;;;;;;5.68;2.10;;;14.90;99.90;;;;;;5051670;28;20487;-76
2022/06/29 01:18:56;;;;;;;6.18;3.65;;;15.00;99.90;;;;;;5022096;28;20067;-76
2022/06/29 01:21:22;;;;;;;4.80;2.40;;;15.00;99.90;;;;;;5038909;28;20546;-74
2022/06/29 01:23:50;;;;;;;5.35;2.58;;;14.90;99.90;;;;;;5061683;28;20472;-76
2022/06/29 01:26:17;;;;;;;6.88;3.60;;;14.90;99.90;;;;;;5031406;28;20042;-75
2022/06/29 01:28:46;;;;;;;6.00;1.90;;;14.90;99.90;;;;;;5031645;28;20034;-75
2022/06/29 01:31:17;;;;;;;5.00;2.10;;;14.90;99.90;;;;;;5031477;28;20113;-75
2022/06/29 01:33:44;;;;;;;5.10;2.00;;;14.90;99.90;;;;;;5033625;28;20107;-76
2022/06/29 01:36:10;;;;;;;4.43;2.03;;;14.90;99.90;;;;;;5051815;28;20537;-75
2022/06/29 01:38:36;;;;;;;8.65;3.47;;;14.90;99.90;;;;;;5049604;28;20049;-75
2022/06/29 01:41:08;;;;;;;6.35;2.90;;;14.90;99.90;;;;;;5038263;28;20523;-75
2022/06/29 01:43:34;;;;;;;9.20;2.97;;;14.90;99.90;;;;;;5037052;28;20045;-74
2022/06/29 01:46:00;;;;;;;9.50;3.45;;;14.80;99.90;;;;;;5028829;28;20076;-76
2022/06/29 01:48:26;;;;;;;7.43;2.60;;;14.80;99.90;;;;;;5042762;28;20411;-75
2022/06/29 01:50:52;;;;;;;6.95;2.67;;;14.70;99.90;;;;;;5032792;28;20049;-76
2022/06/29 01:53:17;;;;;;;6.13;2.20;;;14.50;99.90;;;;;;5030842;28;20045;-75
2022/06/29 01:55:47;;;;;;;7.38;2.30;;;14.50;99.90;;;;;;5032859;28;20054;-76
2022/06/29 01:58:13;;;;;;;5.25;2.30;;;14.50;99.90;;;;;;5041814;28;20468;-76
2022/06/29 02:00:40;;;;;;;4.88;2.08;;;14.60;99.90;;;;;;5058443;28;20049;-76
2022/06/29 02:03:05;;;;;;;5.40;2.20;;;14.60;99.90;;;;;;5030686;28;20077;-76
2022/06/29 02:05:31;;;;;;;5.70;2.25;;;14.60;99.90;;;;;;5027611;28;20111;-75
2022/06/29 02:07:57;;;;;;;5.53;2.25;;;14.70;99.90;;;;;;5032111;28;20045;-77
2022/06/29 02:10:23;;;;;;;5.70;2.22;;;14.80;99.90;;;;;;5032591;28;20076;-76
2022/06/29 02:12:48;;;;;;;5.72;2.63;;;14.80;99.90;;;;;;5046587;28;20049;-75
2022/06/29 02:15:15;;;;;;;5.38;2.67;;;14.80;99.90;;;;;;5037592;28;20072;-74
2022/06/29 02:17:41;;;;;;;8.23;4.63;;;14.80;99.90;;;;;;5040272;28;20046;-74
2022/06/29 02:20:07;;;;;;;5.28;2.50;;;14.80;99.90;;;;;;5030332;28;20408;-74
2022/06/29 02:22:33;;;;;;;4.72;2.83;;;14.70;99.90;;;;;;5030646;28;20056;-74
2022/06/29 02:24:58;;;;;;;5.43;2.60;;;14.70;99.90;;;;;;5028770;28;20052;-76
2022/06/29 02:27:24;;;;;;;6.65;3.25;;;14.70;99.90;;;;;;5036794;28;20045;-75
2022/06/29 02:29:50;;;;;;;5.43;2.40;;;14.60;99.90;;;;;;5050703;28;20045;-75
2022/06/29 02:35:00;;;;;;;4.97;2.50;;;14.60;99.90;;;;;;5030683;28;20064;-76
2022/06/29 02:37:25;;;;;;;8.73;3.92;;;14.60;99.90;;;;;;5030572;28;20049;-76
2022/06/29 02:39:51;;;;;;;6.18;2.92;;;14.70;99.90;;;;;;5030887;28;20049;-75
2022/06/29 02:42:17;;;;;;;6.47;2.40;;;14.60;99.90;;;;;;5047495;28;20053;-75
2022/06/29 02:44:42;;;;;;;5.63;2.53;;;14.60;99.90;;;;;;5050533;28;20045;-74
2022/06/29 02:47:09;;;;;;;5.60;2.40;;;14.60;99.90;;;;;;5048783;28;20049;-74
2022/06/29 02:49:35;;;;;;;6.40;3.85;;;14.60;99.90;;;;;;5056332;28;20455;-74
2022/06/29 02:52:01;;;;;;;5.75;2.50;;;14.60;99.90;;;;;;5036187;28;20061;-78
2022/06/29 02:54:27;;;;;;;6.55;2.20;;;14.60;99.90;;;;;;5044070;28;20053;-74
2022/06/29 02:56:55;;;;;;;6.35;2.40;;;14.60;99.90;;;;;;5031863;28;20477;-74
2022/06/29 02:59:22;;;;;;;9.35;3.25;;;14.60;99.90;;;;;;5043892;28;20082;-73
2022/06/29 03:01:47;;;;;;;5.97;2.13;;;14.60;99.90;;;;;;5024712;28;20045;-76
2022/06/29 03:04:13;;;;;;;7.53;3.95;;;14.60;99.90;;;;;;5036192;28;20152;-76
2022/06/29 03:06:39;;;;;;;7.20;3.13;;;14.60;99.90;;;;;;5054417;28;20057;-76
2022/06/29 03:09:05;;;;;;;6.40;2.63;;;14.60;99.90;;;;;;5040062;28;20065;-75
2022/06/29 03:11:31;;;;;;;8.63;4.80;;;14.60;99.90;;;;;;5050498;28;20037;-74
2022/06/29 03:13:57;;;;;;;4.68;2.20;;;14.50;99.90;;;;;;5033137;28;20061;-75
2022/06/29 03:16:23;;;;;;;7.68;5.47;;;14.50;99.90;;;;;;5047603;28;20041;-74
2022/06/29 03:18:50;;;;;;;8.15;5.07;;;14.40;99.90;;;;;;5033782;28;20168;-75
2022/06/29 03:21:16;;;;;;;9.48;5.63;;;14.30;99.90;;;;;;5035749;28;20065;-74
2022/06/29 03:23:44;;;;;;;6.82;2.83;;;14.30;99.90;;;;;;5045130;28;20424;-74
2022/06/29 03:26:10;;;;;;;4.75;2.70;;;14.20;99.90;;;;;;5034148;28;20407;-75
2022/06/29 03:28:36;;;;;;;5.78;2.70;;;14.20;99.90;;;;;;5019709;28;20056;-74
2022/06/29 03:31:03;;;;;;;5.43;2.47;;;14.20;99.90;;;;;;5040703;28;20049;-74
2022/06/29 03:33:28;;;;;;;5.30;2.80;;;14.30;99.90;;;;;;5039551;28;20049;-74
2022/06/29 03:35:54;;;;;;;6.85;2.60;;;14.30;99.90;;;;;;5042800;28;20056;-74
2022/06/29 03:38:20;;;;;;;5.03;2.70;;;14.30;99.90;;;;;;5032594;28;20114;-74
2022/06/29 03:40:46;;;;;;;7.38;3.28;;;14.30;99.90;;;;;;5041820;28;20106;-76
2022/06/29 03:43:12;;;;;;;6.88;3.90;;;14.20;99.90;;;;;;5052557;28;20147;-74
2022/06/29 03:45:37;;;;;;;8.00;2.72;;;14.20;99.90;;;;;;5047974;28;20537;-75
2022/06/29 03:48:04;;;;;;;7.80;4.10;;;14.20;99.90;;;;;;5045775;28;20144;-74
2022/06/29 03:50:30;;;;;;;6.20;2.70;;;14.20;99.90;;;;;;5032917;28;20069;-74
2022/06/29 03:52:56;;;;;;;8.98;4.45;;;14.20;99.90;;;;;;5027080;28;20132;-75
2022/06/29 03:55:21;;;;;;;7.18;4.18;;;14.20;99.90;;;;;;5039765;28;20556;-74
2022/06/29 03:57:47;;;;;;;9.80;4.40;;;14.20;99.90;;;;;;5043687;28;20393;-75
2022/06/29 04:00:13;;;;;;;13.55;6.07;;;14.20;99.90;;;;;;5027690;28;20084;-76
2022/06/29 04:02:39;;;;;;;7.70;4.03;;;14.10;99.90;;;;;;5016767;28;20088;-75
2022/06/29 04:05:05;;;;;;;6.85;3.08;;;13.90;99.90;;;;;;5045625;28;20047;-75
2022/06/29 04:07:32;;;;;;;8.88;5.28;;;13.90;99.90;;;;;;5047830;28;20077;-75
2022/06/29 04:10:00;;;;;;;13.60;6.40;;;13.90;99.90;;;;;;5043868;28;20055;-75
2022/06/29 04:12:32;;;;;;;14.35;6.50;;;13.90;99.90;;;;;;5027205;28;20461;-75
2022/06/29 04:14:58;;;;;;;8.88;4.05;;;13.80;99.90;;;;;;5036336;28;20069;-74
2022/06/29 04:17:24;;;;;;;7.93;3.95;;;13.70;99.90;;;;;;5004966;28;20045;-74
2022/06/29 04:19:53;;;;;;;7.88;4.60;;;13.70;99.90;;;;;;5047555;28;20503;-75
2022/06/29 04:22:22;;;;;;;11.38;6.57;;;13.80;99.90;;;;;;5039278;28;20044;-74
2022/06/29 04:24:48;;;;;;;8.82;5.60;;;13.90;99.90;;;;;;5023680;28;20405;-75
2022/06/29 04:27:14;;;;;;;14.23;7.78;;;13.90;99.90;;;;;;5034015;28;20040;-75
2022/06/29 04:29:40;;;;;;;11.35;6.65;;;13.90;99.90;;;;;;5033765;28;20045;-74
2022/06/29 04:32:06;;;;;;;11.93;6.43;;;14.00;99.90;;;;;;5049044;28;20059;-74
2022/06/29 04:34:32;;;;;;;15.57;7.75;;;14.10;99.90;;;;;;5043143;28;20124;-74
2022/06/29 04:36:57;;;;;;;14.38;6.53;;;14.10;99.90;;;;;;5037085;28;20531;-74
2022/06/29 04:39:23;;;;;;;8.27;5.55;;;14.10;99.90;;;;;;5030281;28;20049;-74
2022/06/29 04:41:52;;;;;;;14.60;8.20;;;14.10;99.90;;;;;;5036014;28;20052;-74
2022/06/29 04:44:17;;;;;;;13.57;7.53;;;14.20;99.90;;;;;;5021360;28;20049;-74
2022/06/29 04:46:43;;;;;;;14.32;7.40;;;14.20;99.90;;;;;;5033097;28;20059;-74
2022/06/29 04:49:09;;;;;;;14.48;8.85;;;14.30;99.90;;;;;;5031871;28;20049;-74
2022/06/29 04:51:35;;;;;;;12.73;8.07;;;14.40;99.90;;;;;;5034134;28;20543;-74
2022/06/29 04:54:01;;;;;;;12.02;8.02;;;14.50;99.90;;;;;;5047482;28;20471;-74
2022/06/29 04:56:29;;;;;;;11.98;7.60;;;14.60;99.90;;;;;;5032356;28;20057;-73
2022/06/29 04:58:56;;;;;;;10.32;7.32;;;14.70;99.90;;;;;;5032178;28;20044;-73
2022/06/29 05:01:23;;;;;;;8.85;7.72;;;14.70;99.90;;;;;;5040429;28;20053;-74
2022/06/29 05:03:50;;;;;;;11.35;7.78;;;14.80;99.90;;;;;;5047252;28;20079;-74
2022/06/29 05:06:16;;;;;;;9.65;7.18;;;14.80;99.90;;;;;;5040356;28;20457;-74
2022/06/29 05:08:42;;;;;;;8.73;6.95;;;14.90;99.90;;;;;;5020893;28;20129;-75
2022/06/29 05:11:08;;;;;;;10.40;7.35;;;15.00;99.90;;;;;;5035309;28;20120;-74
2022/06/29 05:13:34;;;;;;;10.68;7.13;;;15.00;99.90;;;;;;5051466;28;20056;-73
2022/06/29 05:15:59;;;;;;;9.20;7.07;;;15.20;99.90;;;;;;5042595;28;20049;-73
2022/06/29 05:18:26;;;;;;;8.10;7.20;;;15.50;99.90;;;;;;5048439;28;20471;-77
2022/06/29 05:20:52;;;;;;;9.95;6.22;;;15.50;99.90;;;;;;5034885;28;20094;-74
2022/06/29 05:23:18;;;;;;;8.70;6.20;;;15.90;99.90;;;;;;5049421;28;20060;-74
2022/06/29 05:25:44;;;;;;;7.55;5.40;;;16.80;99.90;;;;;;5031801;28;20057;-73
2022/06/29 05:28:11;;;;;;;6.32;5.15;;;17.60;99.90;;;;;;5031069;28;20378;-74
2022/06/29 05:30:38;;;;;;;8.00;5.03;;;18.40;99.90;;;;;;5030354;28;20042;-74
2022/06/29 05:33:04;;;;;;;7.88;5.07;;;19.40;99.90;;;;;;5042258;28;20051;-75
2022/06/29 05:35:33;;;;;;;8.77;5.03;;;19.80;99.90;;;;;;5041309;28;20053;-74
2022/06/29 05:38:00;;;;;;;8.65;4.80;;;20.60;99.90;;;;;;5041146;28;20085;-74
2022/06/29 05:40:26;;;;;;;8.13;4.70;;;20.70;99.90;;;;;;5031675;28;20519;-73
2022/06/29 05:42:52;;;;;;;7.05;4.68;;;21.10;99.90;;;;;;5038672;28;20124;-74
2022/06/29 05:45:18;;;;;;;6.88;4.65;;;21.50;99.90;;;;;;5044721;28;20488;-74
2022/06/29 05:47:44;;;;;;;6.72;4.30;;;22.00;99.90;;;;;;5031108;28;20046;-75
2022/06/29 05:50:10;;;;;;;6.35;4.32;;;22.10;99.20;;;;;;5044865;28;20049;-75
2022/06/29 05:52:39;;;;;;;6.88;4.30;;;22.10;99.50;;;;;;5022782;28;20088;-74
2022/06/29 05:55:05;;;;;;;8.20;3.95;;;22.10;96.90;;;;;;5034703;28;20049;-74
2022/06/29 05:57:30;;;;;;;6.50;3.90;;;22.90;98.00;;;;;;5037590;28;20052;-75
2022/06/29 05:59:56;;;;;;;7.47;4.10;;;23.40;98.10;;;;;;5052276;28;20444;-74
2022/06/29 06:02:22;;;;;;;7.93;4.20;;;23.10;95.80;;;;;;5032219;28;20048;-76
2022/06/29 06:04:48;;;;;;;8.02;4.50;;;23.90;94.70;;;;;;5031604;28;20523;-75
2022/06/29 06:07:13;;;;;;;8.55;3.70;;;23.30;94.40;;;;;;5047450;28;20041;-74
2022/06/29 06:09:39;;;;;;;8.20;4.00;;;23.60;93.10;;;;;;5043277;28;20056;-73
2022/06/29 06:12:05;;;;;;;8.35;4.00;;;23.70;92.60;;;;;;5044958;28;20045;-80
2022/06/29 06:14:31;;;;;;;7.18;4.13;;;23.60;90.40;;;;;;5051868;28;20056;-76
2022/06/29 06:16:56;;;;;;;7.25;3.78;;;23.70;90.40;;;;;;5047175;28;20074;-76
2022/06/29 06:19:22;;;;;;;6.22;3.92;;;23.00;94.00;;;;;;5041367;28;20468;-74
2022/06/29 06:21:48;;;;;;;6.28;4.22;;;22.80;94.80;;;;;;5047995;28;20055;-74
2022/06/29 06:24:13;;;;;;;7.15;4.35;;;22.90;94.10;;;;;;5030417;28;20038;-74
2022/06/29 06:26:39;;;;;;;5.90;3.47;;;22.40;94.70;;;;;;5045606;28;20072;-73
2022/06/29 06:29:05;;;;;;;7.25;3.53;;;23.30;94.20;;;;;;5037246;28;20476;-74
2022/06/29 06:31:31;;;;;;;6.60;3.33;;;24.30;91.30;;;;;;5038214;28;20045;-73
2022/06/29 06:33:57;;;;;;;8.52;2.92;;;25.10;86.50;;;;;;5031761;28;20073;-75
2022/06/29 06:36:23;;;;;;;6.38;3.60;;;25.70;85.60;;;;;;5046360;28;20080;-80
2022/06/29 06:38:48;;;;;;;7.05;3.40;;;26.00;77.90;;;;;;5041521;28;20464;-75
2022/06/29 06:41:23;;;;;;;8.57;4.07;;;25.80;71.20;;;;;;5055815;28;20055;-75
2022/06/29 06:43:54;;;;;;;6.05;3.20;;;24.70;72.50;;;;;;5039396;28;20049;-77
2022/06/29 06:46:21;;;;;;;6.53;3.83;;;24.70;76.90;;;;;;5043785;28;20053;-75
2022/06/29 06:48:49;;;;;;;8.65;3.40;;;25.00;77.40;;;;;;5050961;28;20049;-75
2022/06/29 06:51:15;;;;;;;7.50;3.33;;;25.10;75.60;;;;;;5044829;28;20041;-75
2022/06/29 06:53:41;;;;;;;5.95;3.40;;;25.40;72.30;;;;;;5037655;28;20102;-75
2022/06/29 06:56:07;;;;;;;6.13;3.50;;;25.80;74.30;;;;;;5035401;28;20404;-76
2022/06/29 06:58:36;;;;;;;5.55;2.60;;;25.80;68.60;;;;;;5043982;28;20049;-75
2022/06/29 07:01:05;;;;;;;5.57;3.10;;;25.80;69.40;;;;;;5035675;28;20508;-75
2022/06/29 07:03:32;;;;;;;7.88;2.95;;;25.80;65.90;;;;;;5034267;28;20049;-74
2022/06/29 07:06:04;;;;;;;6.55;3.00;;;26.40;69.50;;;;;;5047896;28;20507;-75
2022/06/29 07:08:31;;;;;;;5.72;2.83;;;26.40;68.80;;;;;;5046149;28;20052;-75
2022/06/29 07:10:58;;;;;;;6.55;2.72;;;26.40;67.40;;;;;;5040714;28;20171;-76
2022/06/29 07:13:24;;;;;;;6.40;2.83;;;26.20;63.90;;;;;;5035514;28;20045;-76
2022/06/29 07:15:49;;;;;;;6.85;3.10;;;25.80;63.90;;;;;;5033910;28;20053;-75
2022/06/29 07:18:15;;;;;;;7.57;3.05;;;25.40;65.20;;;;;;5048709;28;20476;-77
2022/06/29 07:20:41;;;;;;;7.35;3.42;;;25.40;66.70;;;;;;5042373;28;20057;-78
2022/06/29 07:23:07;;;;;;;9.05;3.30;;;25.50;67.30;;;;;;5054725;28;20060;-76
2022/06/29 07:25:32;;;;;;;6.15;3.17;;;24.90;69.70;;;;;;5047284;28;20059;-78
2022/06/29 07:27:58;;;;;;;6.35;3.30;;;25.10;70.00;;;;;;5041653;28;20052;-77
2022/06/29 07:30:24;;;;;;;8.00;3.20;;;24.60;70.30;;;;;;5047755;28;20480;-76
2022/06/29 07:32:50;;;;;;;7.28;2.75;;;24.50;73.30;;;;;;5040907;28;20060;-76
2022/06/29 07:35:15;;;;;;;7.30;2.90;;;25.00;70.50;;;;;;5039845;28;20397;-77
2022/06/29 07:37:42;;;;;;;6.05;2.90;;;25.30;66.10;;;;;;5033058;28;20064;-76
2022/06/29 07:40:09;;;;;;;6.40;2.58;;;24.70;69.10;;;;;;5036034;28;20040;-76
2022/06/29 07:42:35;;;;;;;7.22;2.70;;;25.40;69.80;;;;;;5044159;28;20049;-76
2022/06/29 07:45:02;;;;;;;5.32;2.38;;;25.70;65.50;;;;;;5037463;28;20052;-76
2022/06/29 07:47:28;;;;;;;6.55;2.60;;;25.80;63.40;;;;;;5041605;28;20443;-77
2022/06/29 07:49:54;;;;;;;5.72;2.35;;;25.70;67.40;;;;;;5036073;28;20057;-77
2022/06/29 07:52:20;;;;;;;5.28;2.30;;;25.90;66.40;;;;;;5039111;28;20089;-80
2022/06/29 07:54:46;;;;;;;6.53;2.30;;;26.30;63.10;;;;;;5033604;28;20115;-78
2022/06/29 07:57:12;;;;;;;6.78;2.47;;;26.60;64.50;;;;;;5033935;28;20432;-77
2022/06/29 07:59:37;;;;;;;5.88;2.30;;;26.90;62.10;;;;;;5047909;28;20145;-76
2022/06/29 08:02:03;;;;;;;6.38;2.25;;;27.20;59.00;;;;;;5034111;28;20061;-76
2022/06/29 08:04:29;;;;;;;7.63;2.30;;;27.20;59.50;;;;;;5048161;28;20492;-75
2022/06/29 08:06:55;;;;;;;4.60;2.00;;;26.20;58.70;;;;;;5025561;28;20041;-76
2022/06/29 08:09:20;;;;;;;7.55;2.03;;;26.10;63.60;;;;;;5035501;28;20506;-77
2022/06/29 08:11:46;;;;;;;5.88;1.90;;;26.00;64.00;;;;;;5033951;28;20046;-77
2022/06/29 08:14:12;;;;;;;4.22;1.70;;;25.80;63.00;;;;;;5031615;28;20057;-78
2022/06/29 08:16:39;;;;;;;4.85;1.90;;;26.20;59.00;;;;;;5047349;28;20049;-77
2022/06/29 08:19:05;;;;;;;5.55;1.88;;;26.30;59.10;;;;;;5042088;28;20068;-76
2022/06/29 08:21:30;;;;;;;4.75;1.80;;;26.20;58.50;;;;;;5046977;28;20476;-77
2022/06/29 08:23:56;;;;;;;4.13;1.67;;;26.30;59.60;;;;;;5047789;28;20124;-76
2022/06/29 08:26:22;;;;;;;5.18;1.80;;;26.70;61.70;;;;;;5035640;28;20401;-77
2022/06/29 08:28:48;;;;;;;5.85;1.98;;;26.90;59.30;;;;;;5036158;28;20048;-79
2022/06/29 08:31:13;;;;;;;6.20;1.80;;;26.50;59.00;;;;;;5033901;28;20041;-78
2022/06/29 08:33:39;;;;;;;5.03;1.90;;;27.00;58.30;;;;;;5038883;28;20115;-77
2022/06/29 08:36:05;;;;;;;5.47;1.90;;;26.80;58.60;;;;;;5044893;28;20472;-76
2022/06/29 08:38:31;;;;;;;6.15;1.70;;;26.80;58.40;;;;;;5036792;28;20061;-79
2022/06/29 08:40:57;;;;;;;5.60;1.75;;;27.30;54.60;;;;;;5041341;28;20037;-76
2022/06/29 08:43:23;;;;;;;4.03;1.80;;;27.50;56.60;;;;;;5037056;28;20452;-76
2022/06/29 08:45:50;;;;;;;4.75;1.70;;;27.50;54.60;;;;;;5034556;28;20072;-77
2022/06/29 08:48:16;;;;;;;4.40;2.00;;;27.60;54.10;;;;;;5034805;28;20080;-77
2022/06/29 08:50:48;;;;;;;6.93;1.90;;;27.30;55.50;;;;;;5039457;28;20045;-77
2022/06/29 08:53:15;;;;;;;5.20;1.90;;;27.30;56.10;;;;;;5024462;28;20049;-76
2022/06/29 08:55:48;;;;;;;5.32;1.90;;;27.70;55.60;;;;;;5018160;28;20049;-76
2022/06/29 08:58:19;;;;;;;6.85;2.05;;;28.00;56.00;;;;;;5051868;28;20115;-77
2022/06/29 09:00:45;;;;;;;4.28;2.00;;;26.90;55.40;;;;;;5035503;28;20049;-76
2022/06/29 09:03:11;;;;;;;5.18;2.00;;;27.00;54.70;;;;;;5032137;28;20072;-75
2022/06/29 09:05:38;;;;;;;5.50;2.03;;;27.50;54.30;;;;;;5033500;28;20472;-75
2022/06/29 09:08:04;;;;;;;6.78;2.00;;;27.60;52.90;;;;;;5046038;28;20052;-73
2022/06/29 09:10:31;;;;;;;4.38;1.80;;;27.70;53.30;;;;;;5033206;28;20053;-74
2022/06/29 09:13:01;;;;;;;4.93;1.98;;;27.70;54.30;;;;;;5029875;28;20111;-77
2022/06/29 09:15:31;;;;;;;5.43;1.90;;;27.30;57.30;;;;;;5038245;28;20049;-77
2022/06/29 09:17:56;;;;;;;5.13;2.00;;;27.30;55.90;;;;;;5038758;28;20385;-75
2022/06/29 09:20:22;;;;;;;4.78;1.92;;;27.20;57.30;;;;;;5051560;28;20099;-81
2022/06/29 09:22:57;;;;;;;4.97;1.92;;;27.40;56.90;;;;;;5051731;28;20088;-77
2022/06/29 09:25:27;;;;;;;5.22;1.88;;;27.60;54.90;;;;;;5036806;28;20045;-77
2022/06/29 09:27:56;;;;;;;7.40;1.90;;;28.20;55.30;;;;;;5051879;28;20534;-78
2022/06/29 09:30:30;;;;;;;5.65;1.90;;;28.30;56.20;;;;;;5033978;28;20089;-79
2022/06/29 09:33:05;;;;;;;4.93;1.80;;;28.50;54.10;;;;;;5021846;28;20067;-77
2022/06/29 09:35:32;;;;;;;4.53;1.95;;;28.80;54.70;;;;;;5048419;28;20391;-77
2022/06/29 09:38:25;;;;;;;4.95;1.95;;;29.20;55.50;;;;;;5041439;28;20594;-78
2022/06/29 09:41:08;;;;;;;6.65;2.15;;;29.50;49.00;;;;;;5047840;28;20500;-75
2022/06/29 09:43:44;;;;;;;5.60;2.00;;;29.50;49.40;;;;;;5037169;28;20053;-75
2022/06/29 09:46:15;;;;;;;3.97;1.80;;;29.40;49.90;;;;;;5035466;28;20128;-75
2022/06/29 09:48:42;;;;;;;5.95;2.17;;;29.50;50.40;;;;;;5031155;28;20053;-76
2022/06/29 09:53:59;;;;;;;4.20;1.90;;;29.60;47.80;;;;;;5045735;28;20049;-80
2022/06/29 09:56:26;;;;;;;;;;;29.60;50.10;;;;;;5032113;28;20053;-76
2022/06/29 09:58:55;;;;;;;4.70;2.08;;;29.70;49.20;;;;;;5015166;28;20334;-77
2022/06/29 10:04:05;;;;;;;6.32;2.00;;;29.40;47.80;;;;;;5033637;28;20081;-76
2022/06/29 10:06:31;;;;;;;4.70;1.98;;;29.00;49.90;;;;;;5051356;28;20119;-76
2022/06/29 10:08:58;;;;;;;4.07;1.95;;;28.60;50.50;;;;;;5034024;28;20048;-77
2022/06/29 10:14:47;;;;;;;4.88;1.90;;;28.50;51.60;;;;;;5044131;28;20443;-77
2022/06/29 10:17:23;;;;;;;6.22;2.10;;;28.10;50.10;;;;;;5018260;28;20099;-77
2022/06/29 10:20:09;;;;;;;4.63;1.92;;;27.80;52.30;;;;;;5049232;28;20056;-76
2022/06/29 10:22:35;;;;;;;6.22;2.17;;;27.80;52.90;;;;;;5055980;28;20048;-77
2022/06/29 10:25:06;;;;;;;5.32;2.15;;;27.80;51.20;;;;;;5040547;28;20049;-75
2022/06/29 10:27:32;;;;;;;4.70;2.10;;;27.70;50.90;;;;;;5046699;28;20416;-76
2022/06/29 10:30:21;;;;;;;5.85;2.00;;;27.80;52.10;;;;;;5049917;28;20052;-76
2022/06/29 10:32:47;;;;;;;5.07;2.25;;;27.80;53.90;;;;;;5054320;28;20064;-76
2022/06/29 10:35:13;;;;;;;4.25;1.90;;;27.90;52.70;;;;;;5054762;28;20041;-77
2022/06/29 10:37:53;;;;;;;5.20;2.00;;;27.90;53.70;;;;;;5021929;28;20045;-76
2022/06/29 10:40:28;;;;;;;5.22;2.10;;;28.00;51.30;;;;;;5034761;28;20068;-75
2022/06/29 10:43:08;;;;;;;4.75;2.15;;;27.90;50.70;;;;;;5034100;28;20057;-76
2022/06/29 10:45:37;;;;;;;7.07;2.00;;;27.80;54.00;;;;;;5034501;28;20056;-74
2022/06/29 10:48:08;;;;;;;6.55;2.13;;;27.90;53.20;;;;;;5059374;28;20045;-75
2022/06/29 10:50:35;;;;;;;;;;;27.90;53.30;;;;;;5023416;28;20048;-75
2022/06/29 10:53:09;;;;;;;6.38;2.20;;;27.80;55.90;;;;;;5034453;28;20012;-76
2022/06/29 10:55:38;;;;;;;5.90;2.00;;;27.70;54.10;;;;;;5022112;28;20054;-75
2022/06/29 10:58:05;;;;;;;5.82;2.15;;;27.20;51.90;;;;;;5041649;28;20134;-76
2022/06/29 11:00:38;;;;;;;5.45;2.20;;;27.40;55.10;;;;;;5054069;28;20049;-76
2022/06/29 11:03:12;;;;;;;4.82;2.30;;;27.50;54.90;;;;;;5046705;28;20049;-76
2022/06/29 11:14:00;;;;;;;4.65;2.15;;;27.70;53.90;;;;;;5057390;28;20052;-75
2022/06/29 11:16:31;;;;;;;4.68;2.20;;;27.60;54.60;;;;;;5053961;28;20048;-79
2022/06/29 11:18:57;;;;;;;6.13;2.20;;;27.70;53.50;;;;;;5046859;28;20412;-76
2022/06/29 11:21:24;;;;;;;5.03;2.25;;;27.80;54.20;;;;;;5034048;28;20064;-77
2022/06/29 11:24:03;;;;;;;4.95;2.40;;;27.60;54.50;;;;;;5048680;28;20045;-76
2022/06/29 11:26:29;;;;;;;5.70;2.35;;;27.50;55.00;;;;;;5046701;28;20049;-76
2022/06/29 11:28:57;;;;;;;4.60;2.50;;;27.70;55.30;;;;;;5031486;28;20436;-81
2022/06/29 11:31:23;;;;;;;5.72;2.60;;;27.80;54.60;;;;;;5045302;28;20088;-77
2022/06/29 11:33:52;;;;;;;4.28;2.22;;;27.90;54.80;;;;;;5036018;28;20049;-76
2022/06/29 11:36:27;;;;;;;6.35;2.80;;;28.00;55.90;;;;;;5050425;28;20061;-80
2022/06/29 11:38:55;;;;;;;4.68;2.72;;;28.10;53.10;;;;;;5034365;28;20056;-77
2022/06/29 11:41:25;;;;;;;6.28;3.00;;;28.10;55.30;;;;;;5043606;28;20446;-77
2022/06/29 11:43:59;;;;;;;7.07;3.20;;;28.30;54.70;;;;;;5052375;28;20477;-78
2022/06/29 11:46:27;;;;;;;5.57;2.80;;;28.60;54.50;;;;;;5044833;28;20092;-77
2022/06/29 11:51:58;;;;;;;4.88;2.80;;;28.60;49.90;;;;;;5046822;28;20061;-77
2022/06/29 11:54:40;;;;;;;6.07;2.60;;;28.60;50.40;;;;;;5036331;28;20049;-79
2022/06/29 11:57:11;;;;;;;7.55;3.00;;;28.50;53.10;;;;;;5026992;28;20097;-81
2022/06/29 11:59:39;;;;;;;;;;;28.50;51.10;;;;;;5035614;28;20435;-77
2022/06/29 12:02:06;;;;;;;5.47;2.90;;;28.40;51.40;;;;;;5034570;28;19974;-77
2022/06/29 12:04:34;;;;;;;5.72;2.70;;;28.10;52.20;;;;;;5036367;28;20045;-79
2022/06/29 12:07:16;;;;;;;4.57;2.80;;;28.00;52.80;;;;;;5033103;28;20156;-78
2022/06/29 12:09:42;;;;;;;6.28;2.80;;;27.90;55.80;;;;;;5045289;28;20092;-76
2022/06/29 12:12:09;;;;;;;6.55;3.00;;;27.80;53.70;;;;;;5040803;28;20165;-81
2022/06/29 12:14:37;;;;;;;6.30;2.80;;;27.80;54.30;;;;;;5039699;28;20534;-78
2022/06/29 12:17:04;;;;;;;6.85;3.30;;;27.70;56.10;;;;;;5051492;28;20542;-78
2022/06/29 12:19:29;;;;;;;6.47;2.97;;;27.70;55.20;;;;;;5041787;28;20383;-76
2022/06/29 12:21:57;;;;;;;6.28;3.30;;;27.70;55.70;;;;;;5052529;28;20045;-77
2022/06/29 12:24:24;;;;;;;5.30;3.30;;;27.70;55.00;;;;;;5044179;28;20503;-77
2022/06/29 12:26:50;;;;;;;6.40;3.30;;;27.70;54.00;;;;;;5030164;28;20395;-73
2022/06/29 12:29:16;;;;;;;7.88;3.42;;;27.50;57.10;;;;;;5032248;28;20045;-76
2022/06/29 12:31:42;;;;;;;6.88;3.50;;;27.50;55.70;;;;;;5016318;28;20484;-76
2022/06/29 12:34:10;;;;;;;6.45;3.42;;;27.60;55.90;;;;;;5045797;28;20400;-78
2022/06/29 12:36:35;;;;;;;6.03;3.22;;;27.70;56.60;;;;;;5044733;28;20051;-75
2022/06/29 12:39:01;;;;;;;6.28;3.40;;;27.90;56.00;;;;;;5033314;28;20038;-76
2022/06/29 12:41:27;;;;;;;7.90;3.33;;;27.90;55.10;;;;;;5016448;28;20103;-76
2022/06/29 12:43:53;;;;;;;7.72;3.40;;;28.00;55.20;;;;;;5034214;28;20468;-76
2022/06/29 12:46:18;;;;;;;6.88;3.22;;;27.90;57.00;;;;;;5011977;28;20061;-76
2022/06/29 12:48:44;;;;;;;6.20;3.20;;;28.00;57.20;;;;;;5037636;28;20546;-84
2022/06/29 12:51:10;;;;;;;5.47;3.00;;;28.10;55.30;;;;;;5049423;28;20120;-79
2022/06/29 12:53:36;;;;;;;7.80;3.35;;;28.10;56.70;;;;;;5033365;28;20056;-75
2022/06/29 12:56:03;;;;;;;7.45;3.33;;;28.10;54.00;;;;;;5029417;28;20046;-74
2022/06/29 12:58:29;;;;;;;6.68;3.30;;;28.10;55.10;;;;;;5042832;28;20076;-75
2022/06/29 13:00:54;;;;;;;7.10;3.22;;;28.00;56.30;;;;;;5037976;28;20083;-81
2022/06/29 13:03:20;;;;;;;6.57;3.38;;;27.90;54.00;;;;;;5015327;28;20060;-76
2022/06/29 13:05:46;;;;;;;6.88;3.22;;;28.00;54.50;;;;;;5033130;28;20057;-77
2022/06/29 13:08:13;;;;;;;5.95;3.20;;;28.20;57.10;;;;;;5015044;28;20080;-77
2022/06/29 13:10:38;;;;;;;8.00;3.30;;;28.50;54.10;;;;;;5052333;28;20140;-74